Time;durP1;ratioP1;P1;durP2;ratioP2;P2;SDS_P1;SDS_P2;PMS_P1;PMS_P2;Temp;Humidity;BMP_temperature;BMP_pressure;BME280_temperature;BME280_humidity;BME280_pressure;Samples;Min_cycle;Max_cycle;Signal;HPM_P1;HPM_P2
2021/06/29 00:01:06;;;;;;;2.35;1.50;;;19.50;99.90;;;;;;5030529;28;20074;-70
2021/06/29 00:03:31;;;;;;;1.90;1.70;;;19.50;99.90;;;;;;5029298;28;20113;-69
2021/06/29 00:05:57;;;;;;;6.38;1.98;;;19.60;99.90;;;;;;5028935;28;20513;-71
2021/06/29 00:08:23;;;;;;;2.28;1.65;;;19.70;99.90;;;;;;5029362;28;20136;-70
2021/06/29 00:10:48;;;;;;;1.80;1.33;;;19.60;99.90;;;;;;5029664;28;20097;-70
2021/06/29 00:13:15;;;;;;;3.15;1.58;;;19.50;99.90;;;;;;5031000;28;20061;-70
2021/06/29 00:15:40;;;;;;;2.58;1.80;;;19.60;99.90;;;;;;5028665;28;20088;-70
2021/06/29 00:18:06;;;;;;;2.38;1.70;;;19.50;99.90;;;;;;5030300;28;20184;-70
2021/06/29 00:20:32;;;;;;;3.95;1.60;;;19.60;99.90;;;;;;5026496;28;20074;-71
2021/06/29 00:22:58;;;;;;;2.80;1.80;;;19.50;99.90;;;;;;5027862;28;20093;-70
2021/06/29 00:25:23;;;;;;;2.15;1.58;;;19.50;99.90;;;;;;5026913;28;20066;-70
2021/06/29 00:27:49;;;;;;;2.95;1.38;;;19.50;99.90;;;;;;5028769;28;20128;-71
2021/06/29 00:30:15;;;;;;;1.60;1.50;;;19.40;99.90;;;;;;5028506;28;20196;-69
2021/06/29 00:32:41;;;;;;;2.33;1.70;;;19.40;99.90;;;;;;5029241;28;20082;-70
2021/06/29 00:35:09;;;;;;;4.60;2.72;;;19.50;99.90;;;;;;5010063;28;20545;-71
2021/06/29 00:37:34;;;;;;;3.22;2.38;;;19.50;99.90;;;;;;5029989;28;20094;-71
2021/06/29 00:40:00;;;;;;;2.20;1.73;;;19.50;99.90;;;;;;5027193;28;20500;-71
2021/06/29 00:42:26;;;;;;;2.35;2.08;;;19.40;99.90;;;;;;5027499;28;20133;-71
2021/06/29 00:44:51;;;;;;;2.08;1.80;;;19.50;99.90;;;;;;5020418;28;20084;-70
2021/06/29 00:47:17;;;;;;;2.55;1.75;;;19.50;99.90;;;;;;5026913;28;20094;-69
2021/06/29 00:49:42;;;;;;;6.78;1.83;;;19.50;99.90;;;;;;5009638;28;20074;-71
2021/06/29 00:52:13;;;;;;;2.67;1.80;;;19.50;99.90;;;;;;5029558;28;20165;-71
2021/06/29 00:54:40;;;;;;;2.85;1.55;;;19.40;99.90;;;;;;5011283;28;20070;-71
2021/06/29 00:57:08;;;;;;;1.65;1.42;;;19.30;99.90;;;;;;5026121;28;20499;-71
2021/06/29 00:59:34;;;;;;;1.80;1.70;;;19.30;99.90;;;;;;5025741;28;20114;-70
2021/06/29 01:02:00;;;;;;;4.22;1.95;;;19.30;99.90;;;;;;5023304;28;20109;-70
2021/06/29 01:04:25;;;;;;;2.50;1.80;;;19.20;99.90;;;;;;5025689;28;20499;-69
2021/06/29 01:06:52;;;;;;;2.33;1.70;;;19.00;99.90;;;;;;5024824;28;20081;-71
2021/06/29 01:09:19;;;;;;;2.65;1.75;;;19.00;99.90;;;;;;5028920;28;20074;-71
2021/06/29 01:11:46;;;;;;;3.80;1.77;;;18.90;99.90;;;;;;5027504;28;20069;-70
2021/06/29 01:14:13;;;;;;;3.03;1.45;;;18.80;99.90;;;;;;5026365;28;20082;-70
2021/06/29 01:16:40;;;;;;;2.08;1.50;;;18.80;99.90;;;;;;5027229;28;20074;-71
2021/06/29 01:19:06;;;;;;;2.45;1.80;;;18.90;99.90;;;;;;5027230;28;20098;-68
2021/06/29 01:21:37;;;;;;;5.30;1.90;;;19.00;99.90;;;;;;5025264;28;20074;-70
2021/06/29 01:24:05;;;;;;;2.88;1.42;;;19.00;99.90;;;;;;5026198;28;20077;-71
2021/06/29 01:26:33;;;;;;;3.03;1.75;;;19.10;99.90;;;;;;5018643;28;20132;-70
2021/06/29 01:29:03;;;;;;;3.65;1.67;;;19.10;99.90;;;;;;5021140;28;20104;-70
2021/06/29 01:31:29;;;;;;;2.75;1.90;;;19.10;99.90;;;;;;5007937;28;20073;-70
2021/06/29 01:33:55;;;;;;;2.65;1.50;;;19.20;99.90;;;;;;5027604;28;20149;-70
2021/06/29 01:36:22;;;;;;;4.05;1.98;;;19.10;99.90;;;;;;5026531;28;20161;-70
2021/06/29 01:38:49;;;;;;;4.18;2.00;;;19.10;99.90;;;;;;5025903;28;20101;-69
2021/06/29 01:41:19;;;;;;;2.85;1.92;;;19.10;99.90;;;;;;5027463;28;20070;-70
2021/06/29 01:43:57;;;;;;;2.17;1.98;;;19.20;99.90;;;;;;5029429;28;20081;-70
2021/06/29 01:46:25;;;;;;;4.32;2.40;;;19.20;99.90;;;;;;5025824;28;20561;-70
2021/06/29 01:48:52;;;;;;;2.90;1.95;;;19.20;99.90;;;;;;5027458;28;20148;-70
2021/06/29 01:51:19;;;;;;;2.33;2.00;;;19.20;99.90;;;;;;5008656;28;20092;-70
2021/06/29 01:53:46;;;;;;;3.38;1.77;;;19.10;99.90;;;;;;5028457;28;20445;-69
2021/06/29 01:56:14;;;;;;;2.50;2.30;;;19.20;99.90;;;;;;5026196;28;20131;-70
2021/06/29 01:58:55;;;;;;;5.88;2.30;;;19.10;99.90;;;;;;5025998;28;20151;-70
2021/06/29 02:01:21;;;;;;;4.57;2.05;;;19.10;99.90;;;;;;5024614;28;20073;-70
2021/06/29 02:03:48;;;;;;;3.90;2.30;;;19.20;99.90;;;;;;5027221;28;20561;-70
2021/06/29 02:06:15;;;;;;;3.38;2.20;;;19.20;99.90;;;;;;5027844;28;20082;-70
2021/06/29 02:08:41;;;;;;;3.58;2.45;;;19.20;99.90;;;;;;5028443;28;20098;-69
2021/06/29 02:11:07;;;;;;;3.30;2.63;;;19.20;99.90;;;;;;5026429;28;20082;-71
2021/06/29 02:13:32;;;;;;;4.90;2.47;;;19.00;99.90;;;;;;5027207;28;20127;-71
2021/06/29 02:16:00;;;;;;;2.78;2.50;;;19.10;99.90;;;;;;5026790;28;20077;-70
2021/06/29 02:18:26;;;;;;;3.40;3.10;;;19.10;99.90;;;;;;5027109;28;20181;-70
2021/06/29 02:20:51;;;;;;;2.72;2.38;;;19.10;99.90;;;;;;5023234;28;20188;-70
2021/06/29 02:23:17;;;;;;;2.45;2.22;;;19.10;99.90;;;;;;5026587;28;20105;-70
2021/06/29 02:25:43;;;;;;;4.80;2.60;;;19.00;99.90;;;;;;5023374;28;20740;-70
2021/06/29 02:28:09;;;;;;;3.15;2.50;;;18.90;99.90;;;;;;5025951;28;20121;-70
2021/06/29 02:30:35;;;;;;;3.08;2.78;;;18.90;99.90;;;;;;5025723;28;20078;-70
2021/06/29 02:33:01;;;;;;;4.22;2.40;;;18.90;99.90;;;;;;5026705;28;20108;-69
2021/06/29 02:35:27;;;;;;;4.32;2.58;;;18.80;99.90;;;;;;5027835;28;20078;-70
2021/06/29 02:37:52;;;;;;;3.85;2.28;;;19.00;99.90;;;;;;5027213;28;20101;-73
2021/06/29 02:40:18;;;;;;;3.65;2.55;;;18.90;99.90;;;;;;5026840;28;20088;-70
2021/06/29 02:42:43;;;;;;;2.80;2.47;;;19.00;99.90;;;;;;5024886;28;20148;-70
2021/06/29 02:45:11;;;;;;;2.85;2.40;;;19.00;99.90;;;;;;5026249;28;20116;-69
2021/06/29 02:47:38;;;;;;;5.40;2.80;;;19.00;99.90;;;;;;5020174;28;20462;-69
2021/06/29 02:50:06;;;;;;;3.00;2.15;;;18.80;99.90;;;;;;5024500;28;20089;-70
2021/06/29 02:52:32;;;;;;;3.58;2.78;;;18.70;99.90;;;;;;5026147;28;20092;-70
2021/06/29 02:54:59;;;;;;;2.95;2.33;;;18.80;99.90;;;;;;5026611;28;20082;-70
2021/06/29 02:57:25;;;;;;;3.50;2.10;;;18.80;99.90;;;;;;5025740;28;20208;-72
2021/06/29 02:59:51;;;;;;;2.67;2.30;;;18.90;99.90;;;;;;5027304;28;20077;-70
2021/06/29 03:02:16;;;;;;;5.30;2.28;;;18.90;99.90;;;;;;5027739;28;20070;-70
2021/06/29 03:04:42;;;;;;;4.15;2.33;;;19.00;99.90;;;;;;5025859;28;21512;-70
2021/06/29 03:07:08;;;;;;;4.82;2.47;;;19.00;99.90;;;;;;5027265;28;20097;-69
2021/06/29 03:09:33;;;;;;;3.15;2.63;;;18.90;99.90;;;;;;5027895;28;20120;-69
2021/06/29 03:11:59;;;;;;;2.72;2.30;;;18.90;99.90;;;;;;5024747;28;20078;-68
2021/06/29 03:14:24;;;;;;;2.55;2.30;;;18.80;99.90;;;;;;5027145;28;20136;-70
2021/06/29 03:16:52;;;;;;;2.58;2.00;;;18.80;99.90;;;;;;5025261;28;20534;-70
2021/06/29 03:19:17;;;;;;;2.65;2.40;;;18.80;99.90;;;;;;5025296;28;20550;-70
2021/06/29 03:21:43;;;;;;;3.00;2.58;;;18.70;99.90;;;;;;5026356;28;20116;-70
2021/06/29 03:24:09;;;;;;;4.63;2.45;;;18.70;99.90;;;;;;5026708;28;20253;-69
2021/06/29 03:26:34;;;;;;;4.25;2.53;;;18.70;99.90;;;;;;5024067;28;20157;-70
2021/06/29 03:29:00;;;;;;;4.22;2.70;;;18.70;99.90;;;;;;5025105;28;20465;-69
2021/06/29 03:31:26;;;;;;;2.85;2.55;;;18.70;99.90;;;;;;5024061;28;20078;-69
2021/06/29 03:33:52;;;;;;;3.90;2.92;;;18.70;99.90;;;;;;5026832;28;20181;-70
2021/06/29 03:36:17;;;;;;;5.20;2.80;;;18.60;99.90;;;;;;5027557;28;20089;-68
2021/06/29 03:38:43;;;;;;;4.22;2.72;;;18.60;99.90;;;;;;5029197;28;20181;-70
2021/06/29 03:41:08;;;;;;;3.25;2.80;;;18.60;99.90;;;;;;5031443;28;20093;-69
2021/06/29 03:43:37;;;;;;;2.90;2.60;;;18.60;99.90;;;;;;5029844;28;20181;-72
2021/06/29 03:46:04;;;;;;;3.25;2.95;;;18.60;99.90;;;;;;5022799;28;20082;-69
2021/06/29 03:48:29;;;;;;;2.97;2.70;;;18.70;99.90;;;;;;5029440;28;20212;-69
2021/06/29 03:50:55;;;;;;;3.15;2.40;;;18.60;99.90;;;;;;5027667;28;21954;-70
2021/06/29 03:53:20;;;;;;;3.30;3.00;;;18.70;99.90;;;;;;5029536;28;20086;-68
2021/06/29 03:55:46;;;;;;;2.92;2.70;;;18.80;99.90;;;;;;5031017;28;20077;-70
2021/06/29 03:58:11;;;;;;;3.65;2.50;;;18.70;99.90;;;;;;5029098;28;20574;-70
2021/06/29 04:00:37;;;;;;;3.63;2.92;;;18.80;99.90;;;;;;5029751;28;20074;-70
2021/06/29 04:03:03;;;;;;;4.38;2.80;;;18.80;99.90;;;;;;5029704;28;20074;-68
2021/06/29 04:05:29;;;;;;;2.95;2.70;;;18.80;99.90;;;;;;5028419;28;20456;-70
2021/06/29 04:07:54;;;;;;;3.78;2.55;;;18.70;99.90;;;;;;5026190;28;20094;-70
2021/06/29 04:10:20;;;;;;;3.08;2.03;;;18.70;99.90;;;;;;5027549;28;20074;-70
2021/06/29 04:12:46;;;;;;;3.80;2.35;;;18.70;99.90;;;;;;5028726;28;20454;-70
2021/06/29 04:15:13;;;;;;;2.65;2.30;;;18.70;99.90;;;;;;5028715;28;20522;-68
2021/06/29 04:17:38;;;;;;;3.80;2.70;;;18.60;99.90;;;;;;5026444;28;20614;-69
2021/06/29 04:20:06;;;;;;;2.40;2.00;;;18.70;99.90;;;;;;5029244;28;20522;-70
2021/06/29 04:22:32;;;;;;;3.95;2.55;;;18.70;99.90;;;;;;5028649;28;20474;-70
2021/06/29 04:24:57;;;;;;;2.67;2.47;;;18.80;99.90;;;;;;5029703;28;20077;-70
2021/06/29 04:27:24;;;;;;;2.08;1.80;;;18.80;99.90;;;;;;5029229;28;20094;-69
2021/06/29 04:29:52;;;;;;;2.72;2.30;;;18.90;99.90;;;;;;5030330;28;20077;-70
2021/06/29 04:32:17;;;;;;;2.42;2.10;;;18.90;99.90;;;;;;5026713;28;20075;-69
2021/06/29 04:34:43;;;;;;;4.07;2.50;;;18.90;99.90;;;;;;5028396;28;20105;-70
2021/06/29 04:37:09;;;;;;;2.50;2.20;;;18.90;99.90;;;;;;5029781;28;20132;-70
2021/06/29 04:39:34;;;;;;;4.70;2.00;;;19.00;99.90;;;;;;5029141;28;20181;-70
2021/06/29 04:42:00;;;;;;;3.25;2.20;;;19.00;99.90;;;;;;5027077;28;20081;-72
2021/06/29 04:44:26;;;;;;;3.30;2.25;;;18.90;99.90;;;;;;5030788;28;20164;-69
2021/06/29 04:46:52;;;;;;;2.75;2.00;;;18.90;99.90;;;;;;5010216;28;20154;-70
2021/06/29 04:49:20;;;;;;;2.20;1.85;;;18.80;99.90;;;;;;5026742;28;20078;-69
2021/06/29 04:51:46;;;;;;;3.88;2.42;;;18.80;99.90;;;;;;5029303;28;20082;-69
2021/06/29 04:54:11;;;;;;;2.60;2.13;;;18.90;99.90;;;;;;5009066;28;20077;-69
2021/06/29 04:56:37;;;;;;;2.28;2.03;;;18.80;99.90;;;;;;5025342;28;22001;-70
2021/06/29 04:59:02;;;;;;;2.17;1.88;;;18.90;99.90;;;;;;5027580;28;20124;-70
2021/06/29 05:01:30;;;;;;;2.03;1.52;;;18.90;99.90;;;;;;5010829;28;21909;-70
2021/06/29 05:03:55;;;;;;;2.88;2.03;;;18.90;99.90;;;;;;5024087;28;20066;-71
2021/06/29 05:06:21;;;;;;;2.17;1.70;;;18.90;99.90;;;;;;5025333;28;20082;-70
2021/06/29 05:08:46;;;;;;;2.30;2.10;;;18.90;99.90;;;;;;5008632;28;20184;-71
2021/06/29 05:11:12;;;;;;;5.90;2.05;;;18.90;99.90;;;;;;5021247;28;20089;-70
2021/06/29 05:13:38;;;;;;;1.88;1.63;;;18.90;99.90;;;;;;5021194;28;20086;-72
2021/06/29 05:16:04;;;;;;;4.50;1.88;;;18.90;99.90;;;;;;5016256;28;20156;-72
2021/06/29 05:18:29;;;;;;;2.15;1.60;;;18.90;99.90;;;;;;5025682;28;20102;-70
2021/06/29 05:20:55;;;;;;;2.30;1.90;;;18.80;99.90;;;;;;5028439;28;20070;-70
2021/06/29 05:23:21;;;;;;;2.80;1.90;;;18.80;99.90;;;;;;5025901;28;20155;-71
2021/06/29 05:25:47;;;;;;;2.65;1.85;;;18.90;99.90;;;;;;5025233;28;20141;-70
2021/06/29 05:28:13;;;;;;;6.88;2.90;;;18.90;99.90;;;;;;5026367;28;20110;-71
2021/06/29 05:30:38;;;;;;;2.88;2.55;;;18.90;99.90;;;;;;5029174;28;20515;-72
2021/06/29 05:33:04;;;;;;;3.00;1.90;;;18.80;99.90;;;;;;5011660;28;20188;-70
2021/06/29 05:35:30;;;;;;;4.03;1.55;;;18.90;99.90;;;;;;5026541;28;20082;-70
2021/06/29 05:37:55;;;;;;;2.33;1.67;;;19.00;99.90;;;;;;5024684;28;20469;-70
2021/06/29 05:40:21;;;;;;;2.40;1.90;;;19.00;99.90;;;;;;5027613;28;20101;-71
2021/06/29 05:42:46;;;;;;;2.92;2.17;;;19.00;99.90;;;;;;5026339;28;20070;-69
2021/06/29 05:45:14;;;;;;;3.42;2.20;;;19.10;99.90;;;;;;5027970;28;20093;-71
2021/06/29 05:47:40;;;;;;;3.15;2.08;;;19.10;99.90;;;;;;5021987;28;20092;-70
2021/06/29 05:50:11;;;;;;;2.22;1.80;;;19.10;99.90;;;;;;5024292;28;20085;-70
2021/06/29 05:52:37;;;;;;;4.60;2.33;;;19.00;99.90;;;;;;5026068;28;20081;-70
2021/06/29 05:55:04;;;;;;;5.38;2.15;;;19.00;99.90;;;;;;5027919;28;20078;-70
2021/06/29 05:57:30;;;;;;;3.33;1.90;;;19.00;99.90;;;;;;5022155;28;20148;-70
2021/06/29 05:59:56;;;;;;;3.35;1.80;;;19.00;99.90;;;;;;5026759;28;20074;-70
2021/06/29 06:02:22;;;;;;;2.70;1.98;;;18.90;99.90;;;;;;5028686;28;20504;-70
2021/06/29 06:04:47;;;;;;;4.40;2.72;;;19.00;99.90;;;;;;5026427;28;20078;-70
2021/06/29 06:07:13;;;;;;;4.60;1.90;;;19.00;99.90;;;;;;5026092;28;20464;-71
2021/06/29 06:09:38;;;;;;;2.30;1.75;;;18.90;99.90;;;;;;5024988;28;20082;-70
2021/06/29 06:12:05;;;;;;;3.28;2.25;;;18.90;99.90;;;;;;5027887;28;20101;-70
2021/06/29 06:14:31;;;;;;;2.72;1.60;;;18.90;99.90;;;;;;5024254;28;20538;-70
2021/06/29 06:16:56;;;;;;;4.28;1.83;;;18.90;99.90;;;;;;5012780;28;20081;-70
2021/06/29 06:19:22;;;;;;;2.15;1.80;;;18.90;99.90;;;;;;5026059;28;20112;-70
2021/06/29 06:21:47;;;;;;;3.13;1.75;;;18.90;99.90;;;;;;5024533;28;20549;-70
2021/06/29 06:24:13;;;;;;;3.33;1.60;;;18.90;99.90;;;;;;5026754;28;20593;-70
2021/06/29 06:26:39;;;;;;;2.22;1.80;;;18.90;99.90;;;;;;5021344;28;20161;-70
2021/06/29 06:29:04;;;;;;;3.28;1.40;;;19.00;99.90;;;;;;5026890;28;20152;-70
2021/06/29 06:31:30;;;;;;;2.33;1.85;;;19.00;99.90;;;;;;5025393;28;20124;-70
2021/06/29 06:33:56;;;;;;;2.30;1.60;;;18.90;99.90;;;;;;5023740;28;20081;-71
2021/06/29 06:36:21;;;;;;;4.68;1.83;;;18.90;99.90;;;;;;5019346;28;20088;-70
2021/06/29 06:38:47;;;;;;;1.80;1.35;;;18.90;99.90;;;;;;5020250;28;20132;-70
2021/06/29 06:41:15;;;;;;;3.15;1.70;;;18.90;99.90;;;;;;5025116;28;20081;-71
2021/06/29 06:43:43;;;;;;;4.03;1.70;;;18.90;99.90;;;;;;5025825;28;20116;-70
2021/06/29 06:46:09;;;;;;;3.80;2.05;;;18.90;99.90;;;;;;5021069;28;20070;-70
2021/06/29 06:48:36;;;;;;;3.95;1.80;;;19.00;99.90;;;;;;5021857;28;20095;-70
2021/06/29 06:51:02;;;;;;;2.00;1.65;;;18.90;99.90;;;;;;5012264;28;20078;-72
2021/06/29 06:53:27;;;;;;;1.85;1.60;;;18.80;99.90;;;;;;5023535;28;20073;-71
2021/06/29 06:55:53;;;;;;;5.80;1.95;;;18.60;99.90;;;;;;5024197;28;20656;-71
2021/06/29 06:58:18;;;;;;;2.40;1.55;;;18.50;99.90;;;;;;5021133;28;20220;-71
2021/06/29 07:00:44;;;;;;;1.73;1.42;;;18.40;99.90;;;;;;5027705;28;20145;-71
2021/06/29 07:03:10;;;;;;;2.40;1.63;;;18.20;99.90;;;;;;5019917;28;20161;-71
2021/06/29 07:05:35;;;;;;;1.65;1.48;;;18.30;99.90;;;;;;5009228;28;20149;-71
2021/06/29 07:08:01;;;;;;;2.00;1.40;;;18.50;99.90;;;;;;5023016;28;20090;-71
2021/06/29 07:10:27;;;;;;;3.78;1.23;;;18.40;99.90;;;;;;5021977;28;20089;-72
2021/06/29 07:12:53;;;;;;;1.73;1.30;;;18.40;99.90;;;;;;5027657;28;20078;-71
2021/06/29 07:15:18;;;;;;;3.83;1.20;;;18.50;99.90;;;;;;5029560;28;20464;-72
2021/06/29 07:17:44;;;;;;;2.53;1.10;;;18.30;99.90;;;;;;5028825;28;20244;-71
2021/06/29 07:20:10;;;;;;;1.13;0.95;;;18.30;99.90;;;;;;5028183;28;20082;-71
2021/06/29 07:22:36;;;;;;;2.35;1.10;;;18.20;99.90;;;;;;5026036;28;20070;-71
2021/06/29 07:25:05;;;;;;;2.72;1.00;;;18.30;99.90;;;;;;5026080;28;20173;-73
2021/06/29 07:27:30;;;;;;;1.83;0.98;;;18.40;99.90;;;;;;5025955;28;20092;-71
2021/06/29 07:29:56;;;;;;;1.98;1.00;;;18.30;99.90;;;;;;5028710;28;20066;-71
2021/06/29 07:32:22;;;;;;;2.72;1.00;;;18.30;99.90;;;;;;5009522;28;20488;-71
2021/06/29 07:34:47;;;;;;;1.40;1.00;;;18.50;99.90;;;;;;5024865;28;20196;-71
2021/06/29 07:37:13;;;;;;;2.05;1.20;;;18.50;99.90;;;;;;5028425;28;20134;-71
2021/06/29 07:39:39;;;;;;;3.17;1.30;;;18.60;99.90;;;;;;5025569;28;20094;-71
2021/06/29 07:42:04;;;;;;;3.20;1.70;;;18.80;99.90;;;;;;5027381;28;20074;-71
2021/06/29 07:44:30;;;;;;;1.83;1.20;;;18.90;99.90;;;;;;5009503;28;20084;-71
2021/06/29 07:46:57;;;;;;;3.05;1.10;;;18.90;99.90;;;;;;5026178;28;20157;-71
2021/06/29 07:49:24;;;;;;;1.50;1.17;;;18.90;99.90;;;;;;5027775;28;20101;-71
2021/06/29 07:51:51;;;;;;;1.73;1.25;;;18.90;99.90;;;;;;5028990;28;20529;-71
2021/06/29 07:54:18;;;;;;;2.90;1.45;;;18.80;99.90;;;;;;5027281;28;20077;-71
2021/06/29 07:56:43;;;;;;;1.95;1.52;;;18.90;99.90;;;;;;5027856;28;20705;-71
2021/06/29 07:59:09;;;;;;;1.50;1.40;;;18.90;99.90;;;;;;5027849;28;20105;-71
2021/06/29 08:01:35;;;;;;;1.48;1.10;;;18.90;99.90;;;;;;5028870;28;20152;-72
2021/06/29 08:04:00;;;;;;;1.95;1.40;;;19.20;99.90;;;;;;5027012;28;20177;-71
2021/06/29 08:06:26;;;;;;;1.65;1.30;;;19.50;99.90;;;;;;5025230;28;20483;-71
2021/06/29 08:08:51;;;;;;;1.63;1.52;;;19.70;99.90;;;;;;5025100;28;20526;-71
2021/06/29 08:11:17;;;;;;;1.70;1.55;;;19.90;99.90;;;;;;5010226;28;20132;-71
2021/06/29 08:13:43;;;;;;;2.17;1.00;;;20.20;99.90;;;;;;5028557;28;20454;-71
2021/06/29 08:16:09;;;;;;;1.08;0.98;;;20.20;99.90;;;;;;5008472;28;20461;-71
2021/06/29 08:18:36;;;;;;;1.20;1.10;;;20.20;99.90;;;;;;5022684;28;20106;-72
2021/06/29 08:21:03;;;;;;;1.75;0.85;;;20.30;99.90;;;;;;5023988;28;20086;-71
2021/06/29 08:23:29;;;;;;;1.02;0.90;;;20.50;99.90;;;;;;5025719;28;20062;-71
2021/06/29 08:25:55;;;;;;;2.50;1.20;;;20.60;99.90;;;;;;5026547;28;20088;-71
2021/06/29 08:28:21;;;;;;;2.70;1.02;;;20.60;99.90;;;;;;5026735;28;20155;-71
2021/06/29 08:30:47;;;;;;;2.28;1.23;;;20.70;99.90;;;;;;5027921;28;20082;-71
2021/06/29 08:33:13;;;;;;;1.63;1.17;;;20.90;99.90;;;;;;5030135;28;20116;-71
2021/06/29 08:35:40;;;;;;;1.38;1.00;;;20.90;99.90;;;;;;5027508;28;20070;-70
2021/06/29 08:38:06;;;;;;;1.23;0.90;;;21.00;99.90;;;;;;5023685;28;20189;-71
2021/06/29 08:40:36;;;;;;;1.48;0.90;;;21.10;99.90;;;;;;5025897;28;20090;-70
2021/06/29 08:43:07;;;;;;;1.23;0.90;;;21.20;99.90;;;;;;5027458;28;20074;-72
2021/06/29 08:45:33;;;;;;;3.55;1.30;;;21.30;99.90;;;;;;5024252;28;20206;-71
2021/06/29 08:48:00;;;;;;;2.80;1.85;;;21.40;99.90;;;;;;5026684;28;20089;-72
2021/06/29 08:50:30;;;;;;;1.20;0.90;;;21.50;99.90;;;;;;5027572;28;20085;-72
2021/06/29 08:52:58;;;;;;;1.55;1.05;;;21.50;99.90;;;;;;5027824;28;20084;-72
2021/06/29 08:55:27;;;;;;;0.80;0.80;;;21.60;99.90;;;;;;5025569;28;20101;-70
2021/06/29 08:57:53;;;;;;;3.15;0.80;;;21.70;99.90;;;;;;5022828;28;20105;-70
2021/06/29 09:00:19;;;;;;;0.90;0.82;;;21.80;99.90;;;;;;5025149;28;20082;-73
2021/06/29 09:02:44;;;;;;;0.90;0.80;;;21.80;99.90;;;;;;5025777;28;20077;-71
2021/06/29 09:05:21;;;;;;;1.60;1.00;;;21.90;99.90;;;;;;5026323;28;20129;-72
2021/06/29 09:07:57;;;;;;;1.80;1.20;;;22.10;99.90;;;;;;5022656;28;20104;-72
2021/06/29 09:10:23;;;;;;;1.77;0.82;;;22.10;99.90;;;;;;5029211;28;20100;-72
2021/06/29 09:12:50;;;;;;;4.90;1.40;;;22.20;99.90;;;;;;5026354;28;20081;-71
2021/06/29 09:15:40;;;;;;;1.35;1.15;;;22.30;99.90;;;;;;5026624;28;20102;-71
2021/06/29 09:18:06;;;;;;;1.25;1.15;;;22.30;99.90;;;;;;5025062;28;20094;-71
2021/06/29 09:20:32;;;;;;;3.10;1.40;;;22.30;99.90;;;;;;5023005;28;20563;-71
2021/06/29 09:23:08;;;;;;;2.15;1.40;;;22.30;99.90;;;;;;5027093;28;20131;-72
2021/06/29 09:25:34;;;;;;;1.75;1.40;;;22.40;99.90;;;;;;5025055;28;20085;-72
2021/06/29 09:28:00;;;;;;;1.90;1.35;;;22.40;99.90;;;;;;5024808;28;20156;-71
2021/06/29 09:30:31;;;;;;;2.05;1.60;;;22.50;99.90;;;;;;5027966;28;20446;-72
2021/06/29 09:33:02;;;;;;;1.67;1.27;;;22.50;99.90;;;;;;5026724;28;20153;-72
2021/06/29 09:35:33;;;;;;;1.17;1.08;;;22.70;99.90;;;;;;4982388;28;20078;-71
2021/06/29 09:37:59;;;;;;;2.50;1.10;;;22.70;99.90;;;;;;5025587;28;20656;-71
2021/06/29 09:40:28;;;;;;;1.45;1.35;;;22.70;99.90;;;;;;5025668;28;20885;-72
2021/06/29 09:43:07;;;;;;;3.80;1.30;;;22.80;99.90;;;;;;5022504;28;20117;-72
2021/06/29 09:45:35;;;;;;;2.03;1.15;;;22.70;99.90;;;;;;5017107;28;20595;-72
2021/06/29 09:48:01;;;;;;;4.45;1.17;;;22.90;99.90;;;;;;5026131;28;20093;-71
2021/06/29 09:50:39;;;;;;;1.55;1.20;;;23.00;99.90;;;;;;5022137;28;20088;-72
2021/06/29 09:53:12;;;;;;;1.10;1.00;;;23.00;99.90;;;;;;5024083;28;20078;-72
2021/06/29 09:55:39;;;;;;;1.20;1.02;;;23.00;99.90;;;;;;5023675;28;20156;-72
2021/06/29 09:58:12;;;;;;;1.00;0.90;;;23.00;99.90;;;;;;5025439;28;20181;-72
2021/06/29 10:00:50;;;;;;;1.92;0.95;;;22.90;99.90;;;;;;5026156;28;20105;-72
2021/06/29 10:03:37;;;;;;;1.35;1.10;;;23.10;99.90;;;;;;5027380;28;20153;-72
2021/06/29 10:06:24;;;;;;;3.08;0.73;;;23.20;99.90;;;;;;5025057;28;20070;-72
2021/06/29 10:09:00;;;;;;;1.20;1.05;;;23.20;99.90;;;;;;5011241;28;20109;-72
2021/06/29 10:11:34;;;;;;;1.10;1.00;;;23.10;99.90;;;;;;5009809;28;20085;-72
2021/06/29 10:14:02;;;;;;;;;;;23.10;99.90;;;;;;5018432;28;20189;-72
2021/06/29 10:16:31;;;;;;;1.17;1.08;;;23.10;99.90;;;;;;5025257;28;19974;-71
2021/06/29 10:21:25;;;;;;;0.85;0.82;;;23.20;99.90;;;;;;5023230;28;20085;-72
2021/06/29 10:23:54;;;;;;;0.88;0.60;;;23.40;99.90;;;;;;5011278;28;20094;-72
2021/06/29 10:26:20;;;;;;;1.00;0.50;;;23.50;99.90;;;;;;5018107;28;20153;-72
2021/06/29 10:28:48;;;;;;;1.33;0.90;;;23.50;99.90;;;;;;5011283;28;20108;-72
2021/06/29 10:31:26;;;;;;;1.67;0.90;;;23.50;99.90;;;;;;5015154;28;20081;-72
2021/06/29 10:33:54;;;;;;;0.85;0.70;;;23.30;99.90;;;;;;5022315;28;20637;-72
2021/06/29 10:36:21;;;;;;;1.38;0.77;;;23.10;99.90;;;;;;5021498;28;20074;-72
2021/06/29 10:38:48;;;;;;;1.48;1.05;;;23.20;99.90;;;;;;5022276;28;20118;-72
2021/06/29 10:41:15;;;;;;;0.70;0.70;;;23.40;99.90;;;;;;5024031;28;20534;-72
2021/06/29 10:43:42;;;;;;;1.67;0.80;;;23.50;99.90;;;;;;5026102;28;20078;-72
2021/06/29 10:46:27;;;;;;;1.80;0.93;;;23.40;99.90;;;;;;5006767;28;20070;-71
2021/06/29 10:48:53;;;;;;;1.15;0.80;;;23.20;99.90;;;;;;5024434;28;20168;-71
2021/06/29 10:51:36;;;;;;;1.10;0.73;;;23.10;99.90;;;;;;5023399;28;20086;-72
2021/06/29 10:54:01;;;;;;;1.13;0.80;;;23.40;99.90;;;;;;5021196;28;20074;-71
2021/06/29 10:56:52;;;;;;;0.75;0.52;;;23.40;99.90;;;;;;5025246;28;20092;-71
2021/06/29 10:59:17;;;;;;;2.50;0.65;;;23.50;99.90;;;;;;5019319;28;20122;-71
2021/06/29 11:01:54;;;;;;;0.85;0.45;;;23.50;99.90;;;;;;5023565;28;20615;-73
2021/06/29 11:04:59;;;;;;;1.15;0.80;;;23.70;99.90;;;;;;5001935;28;20078;-72
2021/06/29 11:07:27;;;;;;;;;;;23.70;99.90;;;;;;5023270;28;20176;-71
2021/06/29 11:10:24;;;;;;;0.70;0.60;;;23.80;99.90;;;;;;5025525;28;20057;-72
2021/06/29 11:12:53;;;;;;;0.55;0.43;;;23.90;99.90;;;;;;5023926;28;20074;-72
2021/06/29 11:15:37;;;;;;;1.02;0.45;;;23.90;99.90;;;;;;5003467;28;20628;-72
2021/06/29 11:18:03;;;;;;;0.77;0.60;;;23.90;99.90;;;;;;5023616;28;20114;-71
2021/06/29 11:20:40;;;;;;;1.40;0.90;;;23.90;99.90;;;;;;5005589;28;20509;-72
2021/06/29 11:23:06;;;;;;;0.90;0.80;;;23.80;99.90;;;;;;5025998;28;20082;-72
2021/06/29 11:25:35;;;;;;;0.75;0.60;;;23.70;99.90;;;;;;5024076;28;20116;-71
2021/06/29 11:28:16;;;;;;;0.93;0.82;;;23.70;99.90;;;;;;5027140;28;20201;-71
2021/06/29 11:30:50;;;;;;;1.48;0.70;;;23.70;99.90;;;;;;5023543;28;20081;-73
2021/06/29 11:33:42;;;;;;;1.15;0.85;;;23.60;99.90;;;;;;5026244;28;20168;-72
2021/06/29 11:36:20;;;;;;;0.88;0.80;;;23.80;99.90;;;;;;5017559;28;20090;-71
2021/06/29 11:38:45;;;;;;;0.70;0.70;;;23.70;99.90;;;;;;5023538;28;20097;-73
2021/06/29 11:41:32;;;;;;;0.90;0.70;;;23.60;99.90;;;;;;5004083;28;20648;-71
2021/06/29 11:44:06;;;;;;;1.42;0.60;;;24.00;99.90;;;;;;5020977;28;20079;-71
2021/06/29 11:47:06;;;;;;;2.65;0.65;;;24.10;99.90;;;;;;5016747;28;20084;-73
2021/06/29 11:49:59;;;;;;;1.38;0.43;;;24.00;99.90;;;;;;4997260;28;20089;-74
2021/06/29 11:52:29;;;;;;;0.70;0.50;;;24.00;99.90;;;;;;5027753;28;20069;-71
2021/06/29 11:55:03;;;;;;;4.85;1.63;;;23.90;99.90;;;;;;5009022;28;20236;-71
2021/06/29 11:57:39;;;;;;;1.77;0.50;;;23.70;99.90;;;;;;5029991;28;20545;-71
2021/06/29 12:00:23;;;;;;;1.02;0.82;;;23.80;99.90;;;;;;5021339;28;20080;-71
2021/06/29 12:02:52;;;;;;;1.17;0.77;;;23.90;99.90;;;;;;5013287;28;20074;-72
2021/06/29 12:05:20;;;;;;;4.55;0.90;;;24.00;99.90;;;;;;5030932;28;20155;-72
2021/06/29 12:08:02;;;;;;;0.80;0.70;;;24.20;99.90;;;;;;5030551;28;20078;-71
2021/06/29 12:10:32;;;;;;;0.70;0.70;;;24.30;99.90;;;;;;5029399;28;20070;-71
2021/06/29 12:13:07;;;;;;;1.60;0.57;;;24.40;99.90;;;;;;4980588;28;20224;-74
2021/06/29 12:15:55;;;;;;;2.03;0.80;;;24.30;99.90;;;;;;5027960;28;20160;-75
2021/06/29 12:18:28;;;;;;;0.90;0.57;;;24.50;99.90;;;;;;5028791;28;20096;-72
2021/06/29 12:20:56;;;;;;;1.92;0.98;;;24.50;99.90;;;;;;5027158;28;20196;-72
2021/06/29 12:23:24;;;;;;;0.60;0.60;;;24.50;99.90;;;;;;5029135;28;20434;-71
2021/06/29 12:25:55;;;;;;;1.15;0.60;;;24.40;99.90;;;;;;5028970;28;20073;-71
2021/06/29 12:28:24;;;;;;;1.02;0.82;;;24.50;99.90;;;;;;5026509;28;20139;-71
2021/06/29 12:31:02;;;;;;;1.08;0.60;;;24.50;99.90;;;;;;5006659;28;20130;-72
2021/06/29 12:33:29;;;;;;;1.40;0.70;;;24.40;99.90;;;;;;5028112;28;20076;-73
2021/06/29 12:36:07;;;;;;;2.75;0.80;;;24.60;99.90;;;;;;5019320;28;20082;-73
2021/06/29 12:38:43;;;;;;;2.25;0.90;;;24.60;99.90;;;;;;5017037;28;20098;-72
2021/06/29 12:41:21;;;;;;;1.08;0.70;;;24.50;99.90;;;;;;5029332;28;20943;-75
2021/06/29 12:43:58;;;;;;;0.90;0.70;;;24.30;99.90;;;;;;5009189;28;20085;-71
2021/06/29 12:46:26;;;;;;;0.85;0.52;;;24.10;99.90;;;;;;5028617;28;20073;-71
2021/06/29 12:49:00;;;;;;;0.70;0.70;;;24.40;99.90;;;;;;5023282;28;20112;-71
2021/06/29 12:51:28;;;;;;;2.00;0.80;;;24.40;99.90;;;;;;5007697;28;20078;-71
2021/06/29 12:53:55;;;;;;;3.50;1.02;;;24.50;99.90;;;;;;5028379;28;20105;-72
2021/06/29 12:56:21;;;;;;;0.88;0.63;;;24.50;99.90;;;;;;5025456;28;20077;-71